03CO weather

Kugel-Strong Airport
Platteville, Colorado, United States

Public forecast

Using degrees Fahrenheit for public forecast. Weather courtesy of forecast.io.

Closest aviation weather report (METAR) to Kugel-Strong Airport

Closest report is Greeley–Weld County Airport, 14.4 nm (26.7 km) NNE. Retrieved 2020/06/06 22:24 UTC (17 minutes ago):

KGXY 062224Z 8SM VCTS RA FEW045 BKN095 BKN120 21/12 RMK AO2 LTG DSNT ALQDS TSB18RAB21 P0002

Closest aviation forecast (TAF) to Kugel-Strong Airport

Closest forecast is Denver International Airport, 21.3 nm (39.5 km) S. Retrieved 2020/06/06 18:39 UTC (4 hours ago):

TAF KDEN 061736Z 0618/0724 20020G30KT P6SM VCSH FEW070 SCT090 OVC130 TEMPO 0618/0620 20030G45KT -SHRA BKN090 FM062000 18030G45KT 5SM BLDU SCT090 BKN120 TEMPO 0620/0623 VRB40G55KT 4SM -TSRA BLDU BKN080CB FM070100 19018G28KT P6SM SCT090 SCT120 FM070300 VRB06KT P6SM FEW120 SCT200 FM070600 19010KT P6SM FEW200 FM071500 21015G22KT P6SM FEW200 FM071800 22022G35KT P6SM FEW100 SCT200